Time,TemperatureF,DewpointF,PressureIn,WindDirection,WindDirectionDegrees,WindSpeedMPH,WindSpeedGustMPH,Humidity,HourlyPrecipIn,Conditions,Clouds,dailyrainin,SoftwareType,DateUTC
2013-05-11 05:14:00,-999.0,-99.9,29.97,North,-999,-999.0,-999.0,-999,-99.99,,,0.00,weatherlink.com 1.10,2013-05-11 10:14:00,
2013-05-11 05:28:00,-999.0,-99.9,29.97,North,-999,-999.0,-999.0,-999,-99.99,,,0.00,weatherlink.com 1.10,2013-05-11 10:28:00,
2013-05-11 05:43:00,-999.0,-99.9,29.98,North,-999,-999.0,-999.0,-999,-99.99,,,0.00,weatherlink.com 1.10,2013-05-11 10:43:00,
2013-05-11 05:58:00,-999.0,-99.9,29.98,North,-999,-999.0,-999.0,-999,-99.99,,,0.00,weatherlink.com 1.10,2013-05-11 10:58:00,
2013-05-11 06:13:00,-999.0,-99.9,29.99,North,-999,-999.0,-999.0,-999,-99.99,,,0.00,weatherlink.com 1.10,2013-05-11 11:13:00,
2013-05-11 06:28:00,-999.0,-99.9,29.99,North,-999,-999.0,-999.0,-999,-99.99,,,0.00,weatherlink.com 1.10,2013-05-11 11:28:00,
2013-05-11 06:43:00,41.9,27.0,30.00,North,0,3.0,-999.0,56,-99.99,,,0.00,weatherlink.com 1.10,2013-05-11 11:43:00,
2013-05-11 06:58:00,42.1,27.0,30.04,NNW,328,5.0,-999.0,56,-99.99,,,0.00,weatherlink.com 1.10,2013-05-11 11:58:00,
2013-05-11 07:13:00,42.6,28.0,30.04,NNW,333,10.0,-999.0,56,-99.99,,,0.00,weatherlink.com 1.10,2013-05-11 12:13:00,
2013-05-11 07:28:00,43.1,27.0,30.05,North,0,7.0,-999.0,54,-99.99,,,0.00,weatherlink.com 1.10,2013-05-11 12:28:00,
2013-05-11 07:43:00,43.3,27.0,30.05,NW,323,5.0,-999.0,54,-99.99,,,0.00,weatherlink.com 1.10,2013-05-11 12:43:00,
2013-05-11 07:58:00,43.6,28.0,30.06,North,349,13.0,-999.0,55,-99.99,,,0.00,weatherlink.com 1.10,2013-05-11 12:58:00,
2013-05-11 08:13:00,43.3,27.0,30.06,North,357,3.0,-999.0,52,-99.99,,,0.00,weatherlink.com 1.10,2013-05-11 13:13:00,
2013-05-11 08:28:00,43.3,27.0,30.08,NNW,333,5.0,-999.0,53,-99.99,,,0.00,weatherlink.com 1.10,2013-05-11 13:28:00,
2013-05-11 08:43:00,42.9,27.0,30.09,NW,305,5.0,-999.0,53,-99.99,,,0.00,weatherlink.com 1.10,2013-05-11 13:43:00,
2013-05-11 08:58:00,42.6,27.0,30.09,North,8,0.0,-999.0,54,-99.99,,,0.00,weatherlink.com 1.10,2013-05-11 13:58:00,
2013-05-11 09:13:00,44.2,28.0,30.10,North,349,6.0,-999.0,53,-99.99,,,0.00,weatherlink.com 1.10,2013-05-11 14:13:00,
2013-05-11 09:28:00,44.2,28.0,30.09,WNW,294,1.0,-999.0,53,-99.99,,,0.00,weatherlink.com 1.10,2013-05-11 14:28:00,
2013-05-11 09:43:00,43.9,28.0,30.09,North,0,0.0,-999.0,55,-99.99,,,0.00,weatherlink.com 1.10,2013-05-11 14:43:00,
2013-05-11 09:58:00,45.7,29.0,30.09,NE,43,10.0,-999.0,52,-99.99,,,0.00,weatherlink.com 1.10,2013-05-11 14:58:00,
2013-05-11 10:13:00,45.7,28.0,30.09,West,269,11.0,-999.0,51,-99.99,,,0.00,weatherlink.com 1.10,2013-05-11 15:13:00,
2013-05-11 10:28:00,45.1,30.0,30.09,North,0,5.0,-999.0,55,-99.99,,,0.01,weatherlink.com 1.10,2013-05-11 15:28:00,
2013-05-11 10:43:00,45.8,28.0,30.09,NW,310,10.0,-999.0,50,-99.99,,,0.01,weatherlink.com 1.10,2013-05-11 15:43:00,
2013-05-11 10:58:00,46.5,28.0,30.10,NNE,25,9.0,-999.0,49,-99.99,,,0.01,weatherlink.com 1.10,2013-05-11 15:58:00,
2013-05-11 11:13:00,47.6,25.0,30.09,NE,42,13.0,-999.0,41,-99.99,,,0.01,weatherlink.com 1.10,2013-05-11 16:13:00,
2013-05-11 11:28:00,46.0,24.0,30.09,NNW,331,7.0,-999.0,43,-99.99,,,0.01,weatherlink.com 1.10,2013-05-11 16:28:00,
2013-05-11 11:43:00,47.9,21.0,30.09,NE,41,4.0,-999.0,34,-99.99,,,0.01,weatherlink.com 1.10,2013-05-11 16:43:00,
2013-05-11 11:58:00,47.4,22.0,30.09,NNW,332,16.0,-999.0,37,-99.99,,,0.01,weatherlink.com 1.10,2013-05-11 16:58:00,
2013-05-11 12:13:00,48.6,21.0,30.09,North,350,1.0,-999.0,34,-99.99,,,0.01,weatherlink.com 1.10,2013-05-11 17:13:00,
2013-05-11 12:28:00,48.0,19.0,30.09,NNW,340,3.0,-999.0,32,-99.99,,,0.01,weatherlink.com 1.10,2013-05-11 17:28:00,
2013-05-11 12:43:00,49.1,17.0,30.09,North,350,0.0,-999.0,28,-99.99,,,0.01,weatherlink.com 1.10,2013-05-11 17:43:00,
2013-05-11 12:58:00,49.8,18.0,30.09,NNW,344,16.0,-999.0,28,-99.99,,,0.01,weatherlink.com 1.10,2013-05-11 17:58:00,
2013-05-11 13:13:00,50.4,18.0,30.08,West,272,10.0,-999.0,28,-99.99,,,0.01,weatherlink.com 1.10,2013-05-11 18:13:00,
2013-05-11 13:28:00,49.9,18.0,30.09,North,11,9.0,-999.0,28,-99.99,,,0.01,weatherlink.com 1.10,2013-05-11 18:28:00,
2013-05-11 13:43:00,49.5,16.0,30.09,North,357,12.0,-999.0,26,-99.99,,,0.01,weatherlink.com 1.10,2013-05-11 18:43:00,
2013-05-11 13:58:00,50.4,17.0,30.09,North,352,3.0,-999.0,27,-99.99,,,0.01,weatherlink.com 1.10,2013-05-11 18:58:00,
2013-05-11 14:13:00,50.2,21.0,30.10,NNW,347,13.0,-999.0,32,-99.99,,,0.01,weatherlink.com 1.10,2013-05-11 19:13:00,
2013-05-11 14:28:00,49.8,19.0,30.09,NNW,347,10.0,-999.0,30,-99.99,,,0.01,weatherlink.com 1.10,2013-05-11 19:28:00,
2013-05-11 14:43:00,50.4,19.0,30.10,NNW,336,14.0,-999.0,29,-99.99,,,0.01,weatherlink.com 1.10,2013-05-11 19:43:00,
2013-05-11 14:58:00,49.5,19.0,30.10,North,1,6.0,-999.0,30,-99.99,,,0.01,weatherlink.com 1.10,2013-05-11 19:58:00,
2013-05-11 15:13:00,49.6,20.0,30.10,NW,313,9.0,-999.0,31,-99.99,,,0.01,weatherlink.com 1.10,2013-05-11 20:13:00,
2013-05-11 15:28:00,50.5,21.0,30.10,North,351,11.0,-999.0,32,-99.99,,,0.01,weatherlink.com 1.10,2013-05-11 20:28:00,
2013-05-11 15:43:00,49.8,19.0,30.10,North,353,2.0,-999.0,30,-99.99,,,0.01,weatherlink.com 1.10,2013-05-11 20:43:00,
2013-05-11 15:58:00,49.8,20.0,30.10,North,358,5.0,-999.0,31,-99.99,,,0.01,weatherlink.com 1.10,2013-05-11 20:58:00,
2013-05-11 16:13:00,50.1,20.0,30.10,North,356,9.0,-999.0,30,-99.99,,,0.01,weatherlink.com 1.10,2013-05-11 21:13:00,
2013-05-11 16:28:00,50.5,20.0,30.10,North,11,9.0,-999.0,30,-99.99,,,0.01,weatherlink.com 1.10,2013-05-11 21:28:00,
2013-05-11 16:43:00,49.4,20.0,30.10,NNW,328,10.0,-999.0,31,-99.99,,,0.01,weatherlink.com 1.10,2013-05-11 21:43:00,
2013-05-11 16:58:00,50.1,19.0,30.10,NNW,328,4.0,-999.0,29,-99.99,,,0.01,weatherlink.com 1.10,2013-05-11 21:58:00,
2013-05-11 17:13:00,50.4,19.0,30.10,North,351,12.0,-999.0,29,-99.99,,,0.01,weatherlink.com 1.10,2013-05-11 22:13:00,
2013-05-11 17:28:00,51.1,20.0,30.10,NW,326,9.0,-999.0,29,-99.99,,,0.01,weatherlink.com 1.10,2013-05-11 22:28:00,
2013-05-11 17:43:00,50.8,19.0,30.10,North,358,9.0,-999.0,29,-99.99,,,0.01,weatherlink.com 1.10,2013-05-11 22:43:00,
2013-05-11 17:58:00,51.6,19.0,30.10,North,358,2.0,-999.0,28,-99.99,,,0.01,weatherlink.com 1.10,2013-05-11 22:58:00,
2013-05-11 18:13:00,51.3,19.0,30.10,North,0,6.0,-999.0,28,-99.99,,,0.01,weatherlink.com 1.10,2013-05-11 23:13:00,
2013-05-11 18:28:00,51.4,19.0,30.11,NE,39,6.0,-999.0,28,-99.99,,,0.01,weatherlink.com 1.10,2013-05-11 23:28:00,
2013-05-11 18:43:00,51.3,18.0,30.11,NW,311,13.0,-999.0,27,-99.99,,,0.01,weatherlink.com 1.10,2013-05-11 23:43:00,
2013-05-11 18:58:00,50.7,18.0,30.11,North,350,9.0,-999.0,28,-99.99,,,0.01,weatherlink.com 1.10,2013-05-11 23:58:00,
2013-05-11 19:13:00,50.4,20.0,30.12,NE,44,0.0,-999.0,30,-99.99,,,0.01,weatherlink.com 1.10,2013-05-12 00:13:00,
2013-05-11 19:28:00,49.4,19.0,30.11,NW,315,6.0,-999.0,30,-99.99,,,0.01,weatherlink.com 1.10,2013-05-12 00:28:00,
2013-05-11 19:43:00,48.9,19.0,30.12,North,0,7.0,-999.0,30,-99.99,,,0.01,weatherlink.com 1.10,2013-05-12 00:43:00,
2013-05-11 19:58:00,48.3,20.0,30.12,North,7,5.0,-999.0,32,-99.99,,,0.01,weatherlink.com 1.10,2013-05-12 00:58:00,
2013-05-11 20:13:00,48.0,19.0,30.12,NW,320,6.0,-999.0,32,-99.99,,,0.01,weatherlink.com 1.10,2013-05-12 01:13:00,
2013-05-11 20:28:00,47.6,20.0,30.13,NW,326,2.0,-999.0,33,-99.99,,,0.01,weatherlink.com 1.10,2013-05-12 01:28:00,
2013-05-11 20:43:00,47.1,20.0,30.13,NE,47,6.0,-999.0,34,-99.99,,,0.01,weatherlink.com 1.10,2013-05-12 01:43:00,
2013-05-11 20:58:00,46.7,20.0,30.13,North,358,0.0,-999.0,34,-99.99,,,0.01,weatherlink.com 1.10,2013-05-12 01:58:00,
2013-05-11 21:13:00,46.2,20.0,30.14,North,0,0.0,-999.0,35,-99.99,,,0.01,weatherlink.com 1.10,2013-05-12 02:13:00,
2013-05-11 21:28:00,45.8,20.0,30.14,North,1,1.0,-999.0,36,-99.99,,,0.01,weatherlink.com 1.10,2013-05-12 02:28:00,
2013-05-11 21:43:00,45.4,20.0,30.14,North,2,0.0,-999.0,37,-99.99,,,0.01,weatherlink.com 1.10,2013-05-12 02:43:00,
2013-05-11 21:58:00,44.8,20.0,30.15,NNE,20,1.0,-999.0,38,-99.99,,,0.01,weatherlink.com 1.10,2013-05-12 02:58:00,
2013-05-11 22:13:00,44.3,21.0,30.16,NNE,29,0.0,-999.0,40,-99.99,,,0.01,weatherlink.com 1.10,2013-05-12 03:13:00,
2013-05-11 22:28:00,43.8,21.0,30.16,NNE,30,0.0,-999.0,41,-99.99,,,0.01,weatherlink.com 1.10,2013-05-12 03:28:00,
2013-05-11 22:43:00,43.2,21.0,30.16,NNE,16,2.0,-999.0,42,-99.99,,,0.01,weatherlink.com 1.10,2013-05-12 03:43:00,
2013-05-11 22:58:00,42.8,21.0,30.16,NE,39,0.0,-999.0,42,-99.99,,,0.01,weatherlink.com 1.10,2013-05-12 03:58:00,
2013-05-11 23:13:00,41.9,21.0,30.16,NE,39,0.0,-999.0,44,-99.99,,,0.01,weatherlink.com 1.10,2013-05-12 04:13:00,
2013-05-11 23:28:00,41.3,21.0,30.16,NE,39,2.0,-999.0,45,-99.99,,,0.01,weatherlink.com 1.10,2013-05-12 04:28:00,
2013-05-11 23:43:00,40.9,21.0,30.16,NE,39,0.0,-999.0,46,-99.99,,,0.01,weatherlink.com 1.10,2013-05-12 04:43:00,
2013-05-11 23:58:00,40.3,21.0,30.17,NE,39,0.0,-999.0,47,-99.99,,,0.01,weatherlink.com 1.10,2013-05-12 04:58:00,